Time;durP1;ratioP1;P1;durP2;ratioP2;P2;SDS_P1;SDS_P2;PMS_P1;PMS_P2;Temp;Humidity;BMP_temperature;BMP_pressure;BME280_temperature;BME280_humidity;BME280_pressure;Samples;Min_cycle;Max_cycle;Signal;HPM_P1;HPM_P2
2022/12/04 00:00:49;;;;;;;23.47;11.10;;;0.10;99.90;;;;;;4115769;28;20234;-67
2022/12/04 00:02:50;;;;;;;30.90;12.43;;;0.20;99.90;;;;;;4114900;28;20573;-68
2022/12/04 00:04:50;;;;;;;27.30;11.93;;;0.30;99.90;;;;;;4115801;28;20214;-70
2022/12/04 00:06:54;;;;;;;22.73;11.67;;;0.20;99.90;;;;;;4116121;28;20232;-67
2022/12/04 00:08:56;;;;;;;26.33;11.70;;;0.30;99.90;;;;;;4114401;28;20301;-67
2022/12/04 00:10:57;;;;;;;28.77;11.50;;;0.20;99.90;;;;;;4115696;28;20505;-66
2022/12/04 00:12:58;;;;;;;24.20;10.47;;;0.30;99.90;;;;;;4114798;28;20430;-67
2022/12/04 00:14:58;;;;;;;25.13;10.97;;;0.40;99.90;;;;;;4114090;28;20187;-67
2022/12/04 00:16:59;;;;;;;33.70;12.20;;;0.50;99.90;;;;;;4114487;28;20700;-67
2022/12/04 00:19:00;;;;;;;27.47;12.20;;;0.40;99.90;;;;;;4115390;28;20180;-67
2022/12/04 00:21:05;;;;;;;23.03;10.27;;;0.30;99.90;;;;;;4115391;28;20189;-68
2022/12/04 00:23:06;;;;;;;30.33;13.17;;;0.40;99.90;;;;;;4113215;28;20692;-67
2022/12/04 00:25:08;;;;;;;77.50;16.37;;;0.40;99.90;;;;;;4115263;28;20434;-67
2022/12/04 00:27:08;;;;;;;43.30;13.37;;;0.20;99.90;;;;;;4114211;28;20283;-66
2022/12/04 00:29:09;;;;;;;38.70;12.53;;;0.30;99.90;;;;;;4115391;28;20466;-66
2022/12/04 00:31:13;;;;;;;27.97;12.20;;;0.20;99.90;;;;;;4113853;28;20175;-67
2022/12/04 00:33:14;;;;;;;27.67;12.40;;;0.10;99.90;;;;;;4114717;28;20202;-67
2022/12/04 00:35:15;;;;;;;50.37;14.30;;;0.10;99.90;;;;;;4115200;28;20419;-67
2022/12/04 00:37:15;;;;;;;53.87;14.37;;;0.00;99.90;;;;;;4115035;28;20203;-67
2022/12/04 00:39:16;;;;;;;36.97;14.27;;;-0.10;99.90;;;;;;4115124;28;20285;-67
2022/12/04 00:41:21;;;;;;;80.23;17.73;;;-0.10;99.90;;;;;;4115064;28;20287;-67
2022/12/04 00:43:23;;;;;;;53.87;17.33;;;-0.10;99.90;;;;;;4113190;28;20715;-67
2022/12/04 00:45:23;;;;;;;33.63;12.97;;;0.10;99.90;;;;;;4115206;28;20436;-68
2022/12/04 00:47:24;;;;;;;30.17;12.17;;;0.20;99.90;;;;;;4114898;28;20459;-67
2022/12/04 00:49:24;;;;;;;34.10;13.17;;;0.10;99.90;;;;;;4115189;28;20226;-68
2022/12/04 00:51:25;;;;;;;51.30;16.40;;;0.20;99.90;;;;;;4113879;28;20593;-68
2022/12/04 00:53:26;;;;;;;29.17;12.67;;;0.30;99.90;;;;;;4113154;28;20242;-65
2022/12/04 00:55:27;;;;;;;88.27;13.90;;;0.30;99.90;;;;;;4113761;28;20906;-66
2022/12/04 00:57:27;;;;;;;34.20;12.00;;;0.30;99.90;;;;;;4114904;28;20744;-67
2022/12/04 00:59:28;;;;;;;40.20;14.63;;;0.40;99.90;;;;;;4113546;28;20187;-66
2022/12/04 01:01:29;;;;;;;30.40;13.80;;;0.40;99.90;;;;;;4114748;28;20821;-67
2022/12/04 01:03:30;;;;;;;29.63;12.33;;;0.40;99.90;;;;;;4113994;28;20585;-66
2022/12/04 01:05:31;;;;;;;37.30;14.37;;;0.50;99.90;;;;;;4113441;28;20423;-66
2022/12/04 01:07:32;;;;;;;42.10;13.80;;;0.60;99.90;;;;;;4114400;28;20269;-67
2022/12/04 01:09:32;;;;;;;32.43;13.47;;;0.50;99.90;;;;;;4114820;28;20212;-67
2022/12/04 01:11:33;;;;;;;31.77;12.60;;;0.40;99.90;;;;;;4102684;28;20187;-68
2022/12/04 01:13:34;;;;;;;31.80;14.50;;;0.50;99.90;;;;;;4097053;29;20247;-69
2022/12/04 01:15:40;;;;;;;33.87;12.73;;;0.60;99.90;;;;;;4098774;29;20230;-65
2022/12/04 01:17:40;;;;;;;38.67;14.43;;;0.60;99.90;;;;;;4098820;28;20188;-64
2022/12/04 01:19:41;;;;;;;46.73;12.30;;;0.50;99.90;;;;;;4098551;28;20450;-68
2022/12/04 01:21:42;;;;;;;87.00;19.53;;;0.50;99.90;;;;;;4098555;28;20658;-69
2022/12/04 01:23:43;;;;;;;78.33;21.70;;;0.30;99.90;;;;;;4097853;28;20611;-67
2022/12/04 01:25:56;;;;;;;55.47;14.47;;;0.30;99.90;;;;;;4098535;28;20232;-65
2022/12/04 01:27:57;;;;;;;42.60;16.43;;;0.40;99.90;;;;;;4098292;28;20526;-67
2022/12/04 01:29:58;;;;;;;41.90;16.47;;;0.30;99.90;;;;;;4098196;29;21027;-65
2022/12/04 01:31:58;;;;;;;33.17;12.63;;;0.40;99.90;;;;;;4098487;29;20199;-68
2022/12/04 01:33:59;;;;;;;36.07;13.90;;;0.50;99.90;;;;;;4097130;28;20251;-68
2022/12/04 01:36:01;;;;;;;33.50;13.13;;;0.50;99.90;;;;;;4112756;28;20342;-68
2022/12/04 01:38:02;;;;;;;57.60;15.83;;;0.50;99.90;;;;;;4113204;28;20271;-66
2022/12/04 01:40:04;;;;;;;33.70;12.50;;;0.50;99.90;;;;;;4114140;28;20434;-68
2022/12/04 01:42:05;;;;;;;38.07;14.87;;;0.50;99.90;;;;;;4114000;28;20531;-68
2022/12/04 01:44:17;;;;;;;33.13;12.03;;;0.50;99.90;;;;;;4112268;28;20485;-66
2022/12/04 01:46:17;;;;;;;35.73;12.37;;;0.40;99.90;;;;;;4112905;28;20203;-68
2022/12/04 01:48:38;;;;;;;78.33;17.03;;;0.50;99.90;;;;;;4114043;28;20477;-68
2022/12/04 01:50:40;;;;;;;54.50;14.23;;;0.50;99.90;;;;;;4114138;28;20172;-67
2022/12/04 01:52:41;;;;;;;51.87;15.57;;;0.30;99.90;;;;;;4112177;28;20426;-66
2022/12/04 01:54:47;;;;;;;41.30;11.93;;;0.30;99.90;;;;;;4112624;28;20419;-66
2022/12/04 01:56:54;;;;;;;30.90;12.30;;;0.50;99.90;;;;;;4112720;28;20442;-66
2022/12/04 01:58:58;;;;;;;98.63;15.33;;;0.50;99.90;;;;;;4112675;28;20453;-66
2022/12/04 02:01:03;;;;;;;95.27;16.20;;;0.50;99.90;;;;;;4112616;28;20473;-67
2022/12/04 02:03:04;;;;;;;76.67;18.80;;;0.30;99.90;;;;;;4095859;28;20817;-66
2022/12/04 02:05:09;;;;;;;194.63;26.93;;;0.20;99.90;;;;;;4113781;28;20501;-67
2022/12/04 02:07:11;;;;;;;122.63;20.30;;;0.10;99.90;;;;;;4112363;28;20229;-65
2022/12/04 02:09:11;;;;;;;152.07;22.10;;;-0.10;99.90;;;;;;4112466;28;20991;-67
2022/12/04 02:11:26;;;;;;;128.47;18.80;;;-0.10;99.90;;;;;;4113671;28;20422;-66
2022/12/04 02:13:41;;;;;;;126.20;20.10;;;0.00;99.90;;;;;;4112973;28;20269;-67
2022/12/04 02:16:45;;;;;;;174.47;27.10;;;0.00;99.90;;;;;;4112753;28;20449;-66
2022/12/04 02:19:12;;;;;;;162.37;20.93;;;-0.10;99.90;;;;;;4107304;28;20434;-66
2022/12/04 02:21:31;;;;;;;63.87;15.93;;;0.00;99.90;;;;;;4121827;28;20517;-66
2022/12/04 02:23:49;;;;;;;96.63;16.10;;;0.10;99.90;;;;;;4111807;28;20425;-67
2022/12/04 02:26:27;;;;;;;97.27;16.63;;;0.30;99.90;;;;;;4113643;28;21012;-65
2022/12/04 02:28:54;;;;;;;97.90;16.77;;;0.30;99.90;;;;;;4113654;28;20867;-67
2022/12/04 02:30:58;;;;;;;84.90;19.27;;;0.20;99.90;;;;;;4113812;28;20403;-66
2022/12/04 02:33:22;;;;;;;227.57;26.13;;;0.20;99.90;;;;;;4111778;28;20853;-67
2022/12/04 02:35:29;;;;;;;100.53;21.07;;;0.20;99.90;;;;;;4112195;28;20430;-66
2022/12/04 02:37:35;;;;;;;32.23;12.27;;;0.10;99.90;;;;;;4113795;28;20465;-66
2022/12/04 02:40:14;;;;;;;76.87;17.03;;;0.00;99.90;;;;;;4113348;28;20446;-67
2022/12/04 02:42:37;;;;;;;73.00;16.00;;;-0.10;99.90;;;;;;4113527;28;20500;-67
2022/12/04 02:44:46;;;;;;;73.03;19.00;;;-0.10;99.90;;;;;;4113215;28;20494;-66
2022/12/04 02:46:55;;;;;;;60.20;14.60;;;0.10;99.90;;;;;;4112347;28;20462;-66
2022/12/04 02:49:01;;;;;;;39.80;12.43;;;0.10;99.90;;;;;;4112459;28;20895;-67
2022/12/04 02:51:05;;;;;;;56.80;18.60;;;0.20;99.90;;;;;;4112380;28;20417;-66
2022/12/04 02:53:24;;;;;;;102.70;22.90;;;0.30;99.90;;;;;;4111616;28;20435;-66
2022/12/04 02:55:32;;;;;;;56.10;16.90;;;0.20;99.90;;;;;;4112013;28;20436;-66
2022/12/04 02:57:40;;;;;;;49.27;13.27;;;0.30;99.90;;;;;;4112539;28;20433;-66
2022/12/04 02:59:44;;;;;;;83.60;19.20;;;0.40;99.90;;;;;;4112185;28;20465;-67
2022/12/04 03:01:52;;;;;;;45.17;14.53;;;0.30;99.90;;;;;;4111904;28;21018;-66
2022/12/04 03:04:03;;;;;;;52.87;14.90;;;0.30;99.90;;;;;;4111635;28;20414;-66
2022/12/04 03:06:09;;;;;;;42.63;15.07;;;0.30;99.90;;;;;;4106602;28;20443;-66
2022/12/04 03:08:16;;;;;;;124.10;16.30;;;0.10;99.90;;;;;;4111852;28;20579;-67
2022/12/04 03:10:25;;;;;;;95.50;17.77;;;0.20;99.90;;;;;;4096097;29;20420;-66
2022/12/04 03:12:50;;;;;;;76.20;17.90;;;0.10;99.90;;;;;;4111924;28;20497;-66
2022/12/04 03:15:02;;;;;;;43.20;12.43;;;0.20;99.90;;;;;;4112051;28;20438;-66
2022/12/04 03:17:13;;;;;;;132.70;19.07;;;0.20;99.90;;;;;;4106384;28;20505;-65
2022/12/04 03:19:26;;;;;;;113.17;24.23;;;0.20;99.90;;;;;;4111868;28;20438;-67
2022/12/04 03:21:36;;;;;;;30.17;12.53;;;0.10;99.90;;;;;;4113195;28;20430;-66
2022/12/04 03:23:47;;;;;;;55.30;14.27;;;0.10;99.90;;;;;;4111145;28;20503;-67
2022/12/04 03:26:03;;;;;;;187.93;25.50;;;0.20;99.90;;;;;;4110780;28;20446;-65
2022/12/04 03:28:12;;;;;;;163.67;23.03;;;0.10;99.90;;;;;;4108024;28;20470;-66
2022/12/04 03:30:21;;;;;;;161.50;24.93;;;0.20;99.90;;;;;;4111813;28;20418;-66
2022/12/04 03:32:35;;;;;;;90.50;17.90;;;0.30;99.90;;;;;;4111996;28;20430;-68
2022/12/04 03:34:56;;;;;;;403.57;49.63;;;0.30;99.90;;;;;;4111618;28;20425;-66
2022/12/04 03:37:07;;;;;;;182.57;29.43;;;0.20;99.90;;;;;;4128116;28;20882;-67
2022/12/04 03:39:33;;;;;;;63.70;14.67;;;0.00;99.90;;;;;;4111573;28;20418;-66
2022/12/04 03:42:05;;;;;;;62.10;14.73;;;-0.10;99.90;;;;;;4111718;28;20426;-67
2022/12/04 03:44:19;;;;;;;57.70;14.20;;;0.10;99.90;;;;;;4105780;28;20537;-66
2022/12/04 03:46:31;;;;;;;104.70;16.10;;;0.10;99.90;;;;;;4095873;29;20446;-67
2022/12/04 03:48:41;;;;;;;59.13;16.10;;;0.10;99.90;;;;;;4095807;29;20557;-67
2022/12/04 03:50:55;;;;;;;124.87;20.47;;;0.00;99.90;;;;;;4095641;29;20506;-66
2022/12/04 03:53:12;;;;;;;106.83;24.43;;;0.00;99.90;;;;;;4095116;29;20415;-66
2022/12/04 03:55:22;;;;;;;53.30;14.93;;;-0.10;99.90;;;;;;4095775;29;20467;-66
2022/12/04 03:57:31;;;;;;;37.60;13.77;;;-0.10;99.90;;;;;;4097563;28;20852;-67
2022/12/04 03:59:59;;;;;;;72.40;16.13;;;0.00;99.90;;;;;;4098574;29;21006;-67
2022/12/04 04:02:03;;;;;;;35.93;13.97;;;0.10;99.90;;;;;;4098309;28;20482;-67
2022/12/04 04:04:11;;;;;;;39.43;13.73;;;0.20;99.90;;;;;;4097788;29;20790;-67
2022/12/04 04:06:19;;;;;;;103.23;20.57;;;0.20;99.90;;;;;;4098373;29;20449;-67
2022/12/04 04:08:26;;;;;;;71.07;18.00;;;0.10;99.90;;;;;;4098186;29;20541;-66
2022/12/04 04:10:27;;;;;;;42.50;13.50;;;0.10;99.90;;;;;;4098182;29;20506;-67
2022/12/04 04:12:35;;;;;;;83.93;17.93;;;0.10;99.90;;;;;;4082052;29;20539;-66
2022/12/04 04:24:37;;;;;;;47.10;13.57;;;0.20;99.90;;;;;;4097617;29;20439;-66
2022/12/04 04:26:45;;;;;;;46.23;14.67;;;0.20;99.90;;;;;;4099448;28;20455;-66
2022/12/04 04:28:46;;;;;;;36.73;13.47;;;0.20;99.90;;;;;;4097975;29;20559;-66
2022/12/04 04:30:47;;;;;;;121.43;15.63;;;0.20;99.90;;;;;;4099203;29;20786;-67
2022/12/04 04:32:59;;;;;;;67.27;12.73;;;0.20;99.90;;;;;;4097197;29;20172;-66
2022/12/04 04:35:26;;;;;;;57.30;16.13;;;0.20;99.90;;;;;;4098000;29;20168;-66
2022/12/04 04:37:54;;;;;;;110.20;20.17;;;0.20;99.90;;;;;;4097794;29;20471;-66
2022/12/04 04:40:03;;;;;;;315.57;34.77;;;0.30;99.90;;;;;;4097982;29;20954;-66
2022/12/04 04:42:23;;;;;;;109.17;17.70;;;0.10;99.90;;;;;;4097641;29;20415;-66
2022/12/04 04:44:44;;;;;;;147.73;18.43;;;-0.10;99.90;;;;;;4097053;29;20443;-66
2022/12/04 04:46:51;;;;;;;56.13;14.47;;;-0.30;99.90;;;;;;4097746;29;20451;-67
2022/12/04 04:48:57;;;;;;;141.87;23.37;;;-0.30;99.90;;;;;;4097648;29;20845;-66
2022/12/04 04:51:01;;;;;;;91.53;17.10;;;-0.20;99.90;;;;;;4097773;29;20416;-66
2022/12/04 04:53:20;;;;;;;52.63;14.43;;;0.00;99.90;;;;;;4097190;29;20431;-67
2022/12/04 04:55:22;;;;;;;73.83;17.90;;;0.10;99.90;;;;;;4097881;29;20418;-67
2022/12/04 04:57:34;;;;;;;133.57;21.00;;;0.20;99.90;;;;;;4097851;29;20443;-66
2022/12/04 04:59:35;;;;;;;133.70;19.33;;;0.30;99.90;;;;;;4099994;28;20511;-66
2022/12/04 05:01:37;;;;;;;105.47;17.77;;;0.30;99.90;;;;;;4108285;28;20808;-66
2022/12/04 05:03:38;;;;;;;129.70;21.13;;;0.30;99.90;;;;;;4112949;28;20229;-66
2022/12/04 05:05:38;;;;;;;179.33;20.97;;;0.30;99.90;;;;;;4113287;28;20483;-66
2022/12/04 05:07:39;;;;;;;71.53;15.60;;;0.30;99.90;;;;;;4114287;28;20480;-66
2022/12/04 05:09:40;;;;;;;116.23;17.47;;;0.30;99.90;;;;;;4112155;28;20179;-66
2022/12/04 05:11:40;;;;;;;86.10;17.27;;;0.10;99.90;;;;;;4114413;28;20199;-66
2022/12/04 05:13:42;;;;;;;85.10;17.70;;;0.10;99.90;;;;;;4112596;28;20179;-67
2022/12/04 05:15:42;;;;;;;45.77;13.63;;;0.00;99.90;;;;;;4114324;28;20190;-66
2022/12/04 05:17:43;;;;;;;44.63;14.40;;;0.00;99.90;;;;;;4113364;28;20500;-66
2022/12/04 05:19:52;;;;;;;78.03;18.17;;;0.10;99.90;;;;;;4114502;28;20191;-66
2022/12/04 05:21:53;;;;;;;40.63;12.67;;;0.10;99.90;;;;;;4114793;28;20178;-66
2022/12/04 05:23:54;;;;;;;250.37;22.43;;;0.20;99.90;;;;;;4113768;28;20419;-66
2022/12/04 05:26:03;;;;;;;75.23;18.37;;;0.30;99.90;;;;;;4114235;28;20242;-66
2022/12/04 05:28:04;;;;;;;119.33;21.40;;;0.40;99.90;;;;;;4113039;28;20210;-66
2022/12/04 05:30:06;;;;;;;41.40;12.17;;;0.20;99.90;;;;;;4114278;28;20434;-65
2022/12/04 05:32:07;;;;;;;70.00;16.73;;;0.10;99.90;;;;;;4114403;28;20233;-66
2022/12/04 05:34:07;;;;;;;47.33;16.57;;;0.20;99.90;;;;;;4113889;28;20427;-65
2022/12/04 05:36:10;;;;;;;51.03;15.87;;;0.20;99.90;;;;;;4112864;28;20214;-66
2022/12/04 05:38:10;;;;;;;81.13;14.50;;;0.30;99.90;;;;;;4111965;28;20258;-66
2022/12/04 05:40:11;;;;;;;162.00;25.33;;;0.40;99.90;;;;;;4113311;28;20808;-66
2022/12/04 05:42:13;;;;;;;85.63;19.97;;;0.30;99.90;;;;;;4113876;28;20184;-66
2022/12/04 05:44:13;;;;;;;197.40;24.03;;;0.20;99.90;;;;;;4113406;28;20226;-68
2022/12/04 05:46:14;;;;;;;216.97;20.10;;;0.20;99.90;;;;;;4114143;28;20446;-65
2022/12/04 05:48:15;;;;;;;78.00;19.50;;;0.20;99.90;;;;;;4113928;28;20207;-65
2022/12/04 05:50:16;;;;;;;88.33;18.37;;;0.30;99.90;;;;;;4113934;28;20657;-66
2022/12/04 05:52:16;;;;;;;110.50;18.53;;;0.30;99.90;;;;;;4113911;28;20557;-65
2022/12/04 05:54:18;;;;;;;64.83;17.30;;;0.30;99.90;;;;;;4113435;28;20246;-66
2022/12/04 05:56:19;;;;;;;121.63;16.63;;;0.20;99.90;;;;;;4096607;28;20205;-66
2022/12/04 05:58:19;;;;;;;25.00;11.43;;;0.20;99.90;;;;;;4113821;28;20844;-66
2022/12/04 06:00:20;;;;;;;26.23;11.00;;;0.20;99.90;;;;;;4114102;28;20187;-65
2022/12/04 06:02:21;;;;;;;33.10;10.80;;;0.30;99.90;;;;;;4113784;28;20958;-66
2022/12/04 06:04:21;;;;;;;75.33;15.93;;;0.30;99.90;;;;;;4113017;28;20182;-65
2022/12/04 06:06:24;;;;;;;45.80;14.20;;;0.20;99.90;;;;;;4113839;28;20231;-66
2022/12/04 06:08:25;;;;;;;46.90;11.93;;;0.10;99.90;;;;;;4113864;28;20213;-66
2022/12/04 06:10:25;;;;;;;52.67;13.30;;;0.00;99.90;;;;;;4113555;28;20458;-66
2022/12/04 06:12:26;;;;;;;72.67;18.00;;;0.00;99.90;;;;;;4113622;28;20187;-66
2022/12/04 06:14:27;;;;;;;121.63;19.57;;;0.10;99.90;;;;;;4112923;28;20179;-66
2022/12/04 06:16:35;;;;;;;66.83;13.20;;;0.20;99.90;;;;;;4113412;28;20230;-67
2022/12/04 06:18:35;;;;;;;180.03;17.33;;;0.30;99.90;;;;;;4112490;28;20249;-67
2022/12/04 06:20:36;;;;;;;47.83;14.20;;;0.30;99.90;;;;;;4112956;28;20427;-65
2022/12/04 06:22:36;;;;;;;104.00;17.40;;;0.40;99.90;;;;;;4111710;28;20193;-66
2022/12/04 06:24:38;;;;;;;99.13;15.50;;;0.50;99.90;;;;;;4113275;28;20242;-67
2022/12/04 06:26:38;;;;;;;118.33;14.87;;;0.50;99.90;;;;;;4112166;28;20229;-65
2022/12/04 06:28:39;;;;;;;155.07;18.37;;;0.50;99.90;;;;;;4113346;28;20471;-66
2022/12/04 06:30:40;;;;;;;56.60;13.93;;;0.50;99.90;;;;;;4113451;28;20189;-66
2022/12/04 06:32:40;;;;;;;45.47;13.13;;;0.40;99.90;;;;;;4111742;28;20187;-65
2022/12/04 06:34:41;;;;;;;43.13;12.77;;;0.30;99.90;;;;;;4113402;28;20179;-66
2022/12/04 06:36:42;;;;;;;60.10;13.27;;;0.30;99.90;;;;;;4112194;28;20203;-66
2022/12/04 06:38:43;;;;;;;121.20;22.00;;;0.30;99.90;;;;;;4113343;28;20221;-65
2022/12/04 06:40:43;;;;;;;118.27;20.40;;;0.30;99.90;;;;;;4111922;28;20663;-66
2022/12/04 06:42:44;;;;;;;56.27;15.33;;;0.30;99.90;;;;;;4111316;28;20430;-66
2022/12/04 06:44:45;;;;;;;143.53;28.37;;;0.40;99.90;;;;;;4113180;28;20183;-66
2022/12/04 06:46:47;;;;;;;54.73;15.43;;;0.40;99.90;;;;;;4113139;28;20206;-66
2022/12/04 06:48:49;;;;;;;122.43;22.30;;;0.40;99.90;;;;;;4112984;28;20245;-65
2022/12/04 06:51:01;;;;;;;199.43;26.73;;;0.40;99.90;;;;;;4111753;28;20458;-66
2022/12/04 06:53:01;;;;;;;52.00;13.13;;;0.50;99.90;;;;;;4106093;28;20420;-67
2022/12/04 06:55:02;;;;;;;164.07;39.97;;;0.50;99.90;;;;;;4097259;29;20802;-68
2022/12/04 06:57:03;;;;;;;119.90;19.50;;;0.30;99.90;;;;;;4097162;28;20765;-67
2022/12/04 06:59:04;;;;;;;57.97;14.93;;;0.30;99.90;;;;;;4101176;28;20217;-67
2022/12/04 07:01:13;;;;;;;46.13;13.47;;;0.30;99.90;;;;;;4096220;28;20187;-67
2022/12/04 07:03:14;;;;;;;72.10;19.57;;;0.40;99.90;;;;;;4111168;28;21029;-68
2022/12/04 07:05:14;;;;;;;65.03;16.20;;;0.30;99.90;;;;;;4113093;28;20426;-67
2022/12/04 07:07:15;;;;;;;40.70;13.47;;;0.50;99.90;;;;;;4113133;28;20218;-68
2022/12/04 07:09:17;;;;;;;34.83;12.73;;;0.40;99.90;;;;;;4113028;28;20211;-68
2022/12/04 07:11:19;;;;;;;234.60;33.23;;;0.40;99.90;;;;;;4111963;28;20183;-67
2022/12/04 07:13:19;;;;;;;77.67;20.10;;;0.30;99.90;;;;;;4112453;28;20426;-67
2022/12/04 07:15:20;;;;;;;40.30;12.50;;;0.10;99.90;;;;;;4113158;28;20561;-67
2022/12/04 07:17:21;;;;;;;37.10;11.97;;;0.20;99.90;;;;;;4113252;28;20265;-68
2022/12/04 07:19:22;;;;;;;87.90;16.17;;;0.30;99.90;;;;;;4112894;28;20198;-68
2022/12/04 07:21:27;;;;;;;41.30;12.87;;;0.30;99.90;;;;;;4113034;28;20652;-67
2022/12/04 07:23:27;;;;;;;52.10;12.67;;;0.30;99.90;;;;;;4111141;28;20427;-67
2022/12/04 07:25:28;;;;;;;84.00;16.73;;;0.30;99.90;;;;;;4111503;28;20489;-67
2022/12/04 07:27:32;;;;;;;87.13;19.03;;;0.30;99.90;;;;;;4112818;28;20195;-68
2022/12/04 07:29:32;;;;;;;111.17;21.30;;;0.30;99.90;;;;;;4112767;28;20223;-67
2022/12/04 07:31:33;;;;;;;98.27;15.30;;;0.30;99.90;;;;;;4112982;28;21098;-67
2022/12/04 07:33:34;;;;;;;104.33;22.90;;;0.40;99.90;;;;;;4114761;28;20177;-67
2022/12/04 07:35:35;;;;;;;81.03;20.63;;;0.40;99.90;;;;;;4114510;28;20176;-68
2022/12/04 07:37:36;;;;;;;31.93;11.70;;;0.60;99.90;;;;;;4115950;28;20437;-67
2022/12/04 07:39:36;;;;;;;115.83;17.70;;;0.60;99.90;;;;;;4114885;28;20183;-67
2022/12/04 07:41:37;;;;;;;240.13;33.30;;;0.80;99.90;;;;;;4115978;28;20187;-67
2022/12/04 07:43:39;;;;;;;70.73;16.53;;;0.50;99.90;;;;;;4115274;28;20211;-66
2022/12/04 07:45:39;;;;;;;168.10;20.90;;;0.30;99.90;;;;;;4115760;28;20183;-68
2022/12/04 07:47:40;;;;;;;115.83;18.37;;;0.10;99.90;;;;;;4115831;28;20433;-67
2022/12/04 07:49:41;;;;;;;114.63;19.23;;;0.10;99.90;;;;;;4115785;28;20262;-67
2022/12/04 07:51:41;;;;;;;81.43;14.83;;;0.00;99.90;;;;;;4115741;28;20183;-68
2022/12/04 07:53:43;;;;;;;61.17;15.10;;;0.10;99.90;;;;;;4115235;28;20214;-68
2022/12/04 07:55:44;;;;;;;41.50;14.57;;;0.30;99.90;;;;;;4114166;28;20191;-68
2022/12/04 07:57:44;;;;;;;66.00;18.00;;;0.50;99.90;;;;;;4114534;28;20915;-66
2022/12/04 07:59:45;;;;;;;54.70;14.30;;;0.70;99.90;;;;;;4115899;28;20577;-68
2022/12/04 08:01:46;;;;;;;68.40;15.17;;;0.80;99.90;;;;;;4115643;28;20232;-68
2022/12/04 08:03:51;;;;;;;62.03;11.97;;;0.90;99.90;;;;;;4113916;28;20224;-68
2022/12/04 08:05:52;;;;;;;53.50;13.60;;;0.90;99.90;;;;;;4116255;28;20648;-67
2022/12/04 08:07:53;;;;;;;150.63;22.77;;;0.80;99.90;;;;;;4115913;28;20466;-67
2022/12/04 08:09:54;;;;;;;56.67;15.60;;;0.90;99.90;;;;;;4115650;28;20263;-68
2022/12/04 08:11:54;;;;;;;61.23;21.43;;;0.80;99.90;;;;;;4114595;28;20183;-68
2022/12/04 08:13:58;;;;;;;52.50;15.77;;;0.90;99.90;;;;;;4115239;28;20668;-67
2022/12/04 08:16:04;;;;;;;62.63;19.20;;;1.00;99.90;;;;;;4114255;28;20203;-67
2022/12/04 08:18:05;;;;;;;122.67;18.60;;;1.00;99.90;;;;;;4115670;28;20434;-67
2022/12/04 08:20:06;;;;;;;61.20;13.97;;;1.10;99.90;;;;;;4115565;28;20447;-68
2022/12/04 08:22:07;;;;;;;129.63;21.47;;;1.20;99.90;;;;;;4115953;28;20206;-68
2022/12/04 08:24:08;;;;;;;85.63;19.00;;;1.20;99.90;;;;;;4115266;28;20469;-68
2022/12/04 08:26:10;;;;;;;70.93;16.73;;;1.30;99.90;;;;;;4115315;28;20616;-68
2022/12/04 08:28:10;;;;;;;68.93;16.40;;;1.30;99.90;;;;;;4114035;28;20216;-68
2022/12/04 08:30:12;;;;;;;46.90;13.57;;;1.30;99.90;;;;;;4115089;28;20916;-65
2022/12/04 08:32:13;;;;;;;29.97;11.93;;;1.40;99.90;;;;;;4114031;28;20275;-66
2022/12/04 08:34:14;;;;;;;38.90;15.33;;;1.30;99.90;;;;;;4114373;28;20594;-64
2022/12/04 08:36:19;;;;;;;36.87;12.70;;;1.40;99.90;;;;;;4115437;28;20282;-66
2022/12/04 08:38:19;;;;;;;33.60;10.93;;;1.30;99.90;;;;;;4113987;28;20854;-66
2022/12/04 08:40:20;;;;;;;33.00;12.67;;;1.30;99.90;;;;;;4115366;28;20473;-66
2022/12/04 08:42:21;;;;;;;30.47;13.37;;;1.30;99.90;;;;;;4114110;28;20191;-66
2022/12/04 08:44:21;;;;;;;28.73;11.20;;;1.30;99.90;;;;;;4114679;28;20667;-66
2022/12/04 08:46:26;;;;;;;30.63;13.07;;;1.50;99.90;;;;;;4114107;28;20692;-66
2022/12/04 08:48:27;;;;;;;26.07;11.27;;;1.60;99.90;;;;;;4113654;28;20343;-65
2022/12/04 08:50:27;;;;;;;22.33;10.17;;;1.60;99.90;;;;;;4114706;28;20473;-66
2022/12/04 08:52:28;;;;;;;27.43;10.30;;;1.60;99.90;;;;;;4113388;28;20434;-66
2022/12/04 08:54:29;;;;;;;75.20;17.77;;;1.60;99.90;;;;;;4114610;28;20192;-68
2022/12/04 08:56:31;;;;;;;21.93;9.57;;;1.40;99.90;;;;;;4100114;28;20274;-67
2022/12/04 08:58:32;;;;;;;97.10;12.70;;;1.10;99.90;;;;;;4113489;28;20191;-67
2022/12/04 09:00:32;;;;;;;35.63;11.43;;;1.20;99.90;;;;;;4098833;28;21042;-67
2022/12/04 09:02:33;;;;;;;41.80;13.27;;;1.20;99.90;;;;;;4098373;29;20207;-66
2022/12/04 09:04:34;;;;;;;49.93;15.20;;;1.30;99.90;;;;;;4098966;28;20200;-67
2022/12/04 09:06:35;;;;;;;34.53;11.93;;;1.30;99.90;;;;;;4099025;28;20203;-68
2022/12/04 09:08:36;;;;;;;43.70;10.17;;;1.30;99.90;;;;;;4098839;28;20227;-67
2022/12/04 09:10:37;;;;;;;42.47;11.87;;;1.30;99.90;;;;;;4097437;28;20258;-67
2022/12/04 09:12:39;;;;;;;46.73;14.70;;;1.10;99.90;;;;;;4098119;28;20426;-67
2022/12/04 09:14:39;;;;;;;40.73;12.37;;;1.00;99.90;;;;;;4098788;28;20437;-68
2022/12/04 09:16:40;;;;;;;29.47;12.00;;;1.00;99.90;;;;;;4098397;28;20534;-68
2022/12/04 09:18:41;;;;;;;35.77;14.10;;;1.10;99.90;;;;;;4098803;29;20677;-67
2022/12/04 09:20:42;;;;;;;46.63;12.97;;;1.10;99.90;;;;;;4113574;28;20198;-68
2022/12/04 09:22:43;;;;;;;45.10;13.43;;;1.10;99.90;;;;;;4098032;28;20951;-65
2022/12/04 09:24:43;;;;;;;89.03;13.27;;;1.10;99.90;;;;;;4098757;29;20601;-66
2022/12/04 09:26:44;;;;;;;76.57;19.23;;;1.10;99.90;;;;;;4098706;29;20211;-67
2022/12/04 09:28:46;;;;;;;50.03;13.00;;;1.10;99.90;;;;;;4098394;28;20211;-67
2022/12/04 09:31:05;;;;;;;37.93;12.67;;;1.20;99.90;;;;;;4097349;29;20183;-67
2022/12/04 09:33:05;;;;;;;88.63;18.07;;;1.30;99.90;;;;;;4112348;28;20451;-66
2022/12/04 09:35:07;;;;;;;27.73;10.53;;;1.40;99.90;;;;;;4098379;28;20941;-67
2022/12/04 09:37:08;;;;;;;29.03;11.83;;;1.40;99.90;;;;;;4098433;28;20215;-66
2022/12/04 09:39:09;;;;;;;32.70;14.63;;;1.40;99.90;;;;;;4098299;29;20432;-67
2022/12/04 09:41:50;;;;;;;27.53;11.67;;;1.60;99.90;;;;;;4098219;29;20193;-66
2022/12/04 09:44:07;;;;;;;24.10;11.80;;;1.70;99.90;;;;;;4098181;29;20906;-66
2022/12/04 09:46:14;;;;;;;23.73;12.57;;;1.90;99.90;;;;;;4097038;28;20463;-65
2022/12/04 09:48:17;;;;;;;32.40;11.53;;;1.90;99.90;;;;;;4113009;28;20467;-65
2022/12/04 09:50:21;;;;;;;22.60;11.40;;;1.80;99.90;;;;;;4113055;28;20424;-65
2022/12/04 09:52:29;;;;;;;28.10;12.03;;;1.60;99.90;;;;;;4096882;28;20937;-67
2022/12/04 09:54:38;;;;;;;22.43;9.77;;;1.70;99.90;;;;;;4097319;28;20486;-67
2022/12/04 09:56:39;;;;;;;23.30;10.23;;;1.70;99.90;;;;;;4112374;28;20454;-65
2022/12/04 09:58:54;;;;;;;30.03;14.13;;;1.80;99.90;;;;;;4099981;28;20429;-67
2022/12/04 10:00:57;;;;;;;20.27;10.23;;;1.70;99.90;;;;;;4122697;28;20427;-66
2022/12/04 10:03:04;;;;;;;28.30;12.80;;;1.70;99.90;;;;;;4127955;28;20533;-67
2022/12/04 10:05:15;;;;;;;39.07;16.13;;;1.60;99.90;;;;;;4122565;28;20524;-67
2022/12/04 10:07:24;;;;;;;47.37;14.57;;;1.50;99.90;;;;;;4112440;28;20468;-67
2022/12/04 10:09:44;;;;;;;40.53;13.73;;;1.40;99.90;;;;;;4113894;28;20533;-66
2022/12/04 10:12:08;;;;;;;36.70;13.10;;;1.30;99.90;;;;;;4112464;28;20419;-67
2022/12/04 10:14:20;;;;;;;28.37;11.73;;;1.30;99.90;;;;;;4111558;28;20476;-66
2022/12/04 10:16:34;;;;;;;64.30;29.30;;;1.40;99.90;;;;;;4106512;28;20462;-66
2022/12/04 10:18:54;;;;;;;27.33;14.03;;;1.40;99.90;;;;;;4113688;28;20442;-67
2022/12/04 10:21:31;;;;;;;19.63;9.53;;;1.30;99.90;;;;;;4112517;28;20414;-68
2022/12/04 10:24:07;;;;;;;27.77;12.90;;;1.40;99.90;;;;;;4112239;28;20860;-66
2022/12/04 10:26:17;;;;;;;24.73;11.83;;;1.60;99.90;;;;;;4112735;28;20451;-68
2022/12/04 10:28:39;;;;;;;28.70;11.37;;;1.50;99.90;;;;;;4128981;28;20465;-67
2022/12/04 10:30:41;;;;;;;21.17;10.43;;;1.20;99.90;;;;;;4112618;28;20436;-68
2022/12/04 10:32:45;;;;;;;28.40;12.57;;;1.10;99.90;;;;;;4111753;28;20462;-66
2022/12/04 10:34:48;;;;;;;31.87;15.80;;;0.90;99.90;;;;;;4113739;28;21046;-67
2022/12/04 10:36:55;;;;;;;31.10;13.20;;;0.80;99.90;;;;;;4113790;28;20511;-67
2022/12/04 10:38:58;;;;;;;47.77;15.60;;;0.80;99.90;;;;;;4112461;28;20419;-67
2022/12/04 10:41:09;;;;;;;26.13;12.23;;;0.70;99.90;;;;;;4112185;28;20420;-66
2022/12/04 10:43:40;;;;;;;37.23;14.33;;;0.80;99.90;;;;;;4111618;28;21011;-67
2022/12/04 10:45:41;;;;;;;24.33;11.47;;;1.10;99.90;;;;;;4113292;28;20479;-67
2022/12/04 10:47:47;;;;;;;24.87;10.23;;;1.40;99.90;;;;;;4112000;28;20436;-67
2022/12/04 10:49:52;;;;;;;19.13;9.20;;;1.50;99.90;;;;;;4112115;28;20705;-67
2022/12/04 10:51:54;;;;;;;25.70;10.80;;;1.50;99.90;;;;;;4112088;28;20445;-67